Destinations Sarajevo International Airport

Sarajevo International Airport (LQSA / SJJ)

Flights to Sarajevo International Airport

Flight number From ETE Dispatch
SPY-2490 EGPH Edinburgh Airport 03:30

Flights from Sarajevo International Airport

Flight number To ETE Dispatch
SPY-2491 EGPH Edinburgh Airport 03:30
About

Sarajevo International Airport facts

Sarajevo International Airport is located in Sarajevo at an elevation of 520.6 meters or 1708 feet.

Currently, Speedy Airlines serves 2 flights to and from Sarajevo International Airport.

Detailed airport info

Route map

Weather

Current weather

METAR

METAR

Metar data retrieved Sunday, 21 July 2024 at 18:55 UTC

LQSA 211830Z 31003KT 9999 FEW060 26/19 Q1011 NOSIG
Wind Temperature
3 kt 26c